createdAt,value
2022-08-14T00:01:23.832Z,23.51
2022-08-14T00:03:29.222Z,23.49
2022-08-14T00:05:31.145Z,23.45
2022-08-14T00:07:32.706Z,23.44
2022-08-14T00:09:55.989Z,23.43
2022-08-14T00:11:57.920Z,23.38
2022-08-14T00:14:02.219Z,23.34
2022-08-14T00:16:04.170Z,23.27
2022-08-14T00:18:14.426Z,23.17
2022-08-14T00:20:24.101Z,23.14
2022-08-14T00:22:57.219Z,23.09
2022-08-14T00:24:53.515Z,22.97
2022-08-14T00:26:55.105Z,22.91
2022-08-14T00:28:57.257Z,22.91
2022-08-14T00:31:00.084Z,22.92
2022-08-14T00:33:14.505Z,22.90
2022-08-14T00:35:17.583Z,22.88
2022-08-14T00:37:19.193Z,22.90
2022-08-14T00:39:21.221Z,22.90
2022-08-14T00:41:22.766Z,22.91
2022-08-14T00:43:25.065Z,22.89
2022-08-14T00:45:33.868Z,22.90
2022-08-14T00:47:42.984Z,22.91
2022-08-14T00:49:46.328Z,22.92
2022-08-14T00:51:49.665Z,22.92
2022-08-14T00:53:54.309Z,22.92
2022-08-14T00:55:57.674Z,22.89
2022-08-14T00:58:19.014Z,22.89
2022-08-14T01:00:37.531Z,22.85
2022-08-14T01:02:53.850Z,22.82
2022-08-14T01:04:59.159Z,22.78
2022-08-14T01:07:04.995Z,22.77
2022-08-14T01:09:10.692Z,22.75
2022-08-14T01:11:18.909Z,22.73
2022-08-14T01:13:42.162Z,22.69
2022-08-14T01:15:57.605Z,22.65
2022-08-14T01:18:20.980Z,22.64
2022-08-14T01:20:41.719Z,22.61
2022-08-14T01:22:46.042Z,22.56
2022-08-14T01:24:48.346Z,22.54
2022-08-14T01:26:53.333Z,22.50
2022-08-14T01:28:59.391Z,22.47
2022-08-14T01:31:02.072Z,22.45
2022-08-14T01:33:04.384Z,22.44
2022-08-14T01:35:19.346Z,22.42
2022-08-14T01:37:31.950Z,22.41
2022-08-14T01:39:37.902Z,22.41
2022-08-14T01:41:40.247Z,22.42
2022-08-14T01:43:45.129Z,22.38
2022-08-14T01:46:06.987Z,22.35
2022-08-14T01:48:13.194Z,22.30
2022-08-14T01:50:16.944Z,22.25
2022-08-14T01:52:34.505Z,22.20
2022-08-14T01:54:40.149Z,22.13
2022-08-14T01:56:42.703Z,22.10
2022-08-14T01:58:57.926Z,22.07
2022-08-14T02:01:00.337Z,22.07
2022-08-14T02:03:02.033Z,22.04
2022-08-14T02:05:03.867Z,22.03
2022-08-14T02:07:07.379Z,22.00
2022-08-14T02:09:22.514Z,21.97
2022-08-14T02:11:25.946Z,21.93
2022-08-14T02:13:27.435Z,21.90
2022-08-14T02:15:32.285Z,21.88
2022-08-14T02:17:34.216Z,21.86
2022-08-14T02:19:35.920Z,21.81
2022-08-14T02:21:43.382Z,21.79
2022-08-14T02:23:53.621Z,21.79
2022-08-14T02:25:55.307Z,21.76
2022-08-14T02:28:26.017Z,21.78
2022-08-14T02:30:18.743Z,21.78
2022-08-14T02:32:30.552Z,21.77
2022-08-14T02:34:38.500Z,21.76
2022-08-14T02:37:02.683Z,21.76
2022-08-14T02:39:10.246Z,21.75
2022-08-14T02:41:13.082Z,21.76
2022-08-14T02:43:14.797Z,21.77
2022-08-14T02:45:17.667Z,21.77
2022-08-14T02:47:21.072Z,21.77
2022-08-14T02:49:26.610Z,21.74
2022-08-14T02:51:36.971Z,21.75
2022-08-14T02:53:46.450Z,21.76
2022-08-14T02:55:48.124Z,21.76
2022-08-14T02:57:58.178Z,21.77
2022-08-14T03:00:09.229Z,21.78
2022-08-14T03:02:48.725Z,21.81
2022-08-14T03:04:34.523Z,21.83
2022-08-14T03:06:57.768Z,21.82
2022-08-14T03:08:59.932Z,21.81
2022-08-14T03:11:07.732Z,21.82
2022-08-14T03:13:19.551Z,21.81
2022-08-14T03:15:22.986Z,21.81
2022-08-14T03:17:26.954Z,21.81
2022-08-14T03:19:33.637Z,21.80
2022-08-14T03:21:37.145Z,21.80
2022-08-14T03:23:40.472Z,21.81
2022-08-14T03:25:44.393Z,21.82
2022-08-14T03:27:48.330Z,21.80
2022-08-14T03:30:00.335Z,21.80
2022-08-14T03:32:07.366Z,21.79
2022-08-14T03:34:11.468Z,21.78
2022-08-14T03:37:28.766Z,21.76
2022-08-14T03:39:14.043Z,21.72
2022-08-14T03:41:23.182Z,21.70
2022-08-14T03:43:24.988Z,21.69
2022-08-14T03:45:35.217Z,21.68
2022-08-14T03:47:56.070Z,21.67
2022-08-14T03:50:00.467Z,21.64
2022-08-14T03:52:07.860Z,21.63
2022-08-14T03:54:26.338Z,21.62
2022-08-14T03:56:30.029Z,21.62
2022-08-14T03:58:35.016Z,21.61
2022-08-14T04:00:42.784Z,21.59
2022-08-14T04:02:53.225Z,21.59
2022-08-14T04:04:55.095Z,21.57
2022-08-14T04:06:59.974Z,21.57
2022-08-14T04:09:01.625Z,21.56
2022-08-14T04:11:10.232Z,21.57
2022-08-14T04:13:18.639Z,21.56
2022-08-14T04:15:21.247Z,21.55
2022-08-14T04:17:26.193Z,21.53
2022-08-14T04:19:32.867Z,21.51
2022-08-14T04:21:39.994Z,21.49
2022-08-14T04:24:01.347Z,21.46
2022-08-14T04:26:04.813Z,21.44
2022-08-14T04:29:06.834Z,21.43
2022-08-14T04:30:38.612Z,21.42
2022-08-14T04:33:02.074Z,21.41
2022-08-14T04:35:07.799Z,21.41
2022-08-14T04:37:30.956Z,21.40
2022-08-14T04:39:56.940Z,21.41
2022-08-14T04:42:17.656Z,21.41
2022-08-14T04:44:26.653Z,21.42
2022-08-14T04:46:55.709Z,21.42
2022-08-14T04:49:00.202Z,21.42
2022-08-14T04:51:04.238Z,21.45
2022-08-14T04:53:05.823Z,21.43
2022-08-14T04:55:08.234Z,21.44
2022-08-14T04:57:13.341Z,21.48
2022-08-14T04:59:14.982Z,21.53
2022-08-14T05:01:19.537Z,21.57
2022-08-14T05:03:25.327Z,21.68
2022-08-14T05:05:26.938Z,21.77
2022-08-14T05:07:46.272Z,21.89
2022-08-14T05:09:55.226Z,22.01
2022-08-14T05:11:56.753Z,22.12
2022-08-14T05:14:46.446Z,22.20
2022-08-14T05:16:40.610Z,22.29
2022-08-14T05:19:18.399Z,22.34
2022-08-14T05:21:57.087Z,22.41
2022-08-14T05:23:34.584Z,22.47
2022-08-14T05:25:38.753Z,22.51
2022-08-14T05:27:40.346Z,22.51
2022-08-14T05:29:44.841Z,22.48
2022-08-14T05:31:46.607Z,22.50
2022-08-14T05:33:56.603Z,22.57
2022-08-14T05:36:01.211Z,22.64
2022-08-14T05:38:22.312Z,22.69
2022-08-14T05:40:32.878Z,22.75
2022-08-14T05:42:34.620Z,22.76
2022-08-14T05:44:36.161Z,22.84
2022-08-14T05:46:37.782Z,22.90
2022-08-14T05:48:43.347Z,22.95
2022-08-14T05:50:45.359Z,23.01
2022-08-14T05:52:48.644Z,23.01
2022-08-14T05:54:50.133Z,23.04
2022-08-14T05:56:51.621Z,23.03
2022-08-14T05:58:53.919Z,23.01
2022-08-14T06:00:56.805Z,22.94
2022-08-14T06:03:00.448Z,22.93
2022-08-14T06:05:03.073Z,23.00
2022-08-14T06:07:04.834Z,23.07
2022-08-14T06:09:10.060Z,23.04
2022-08-14T06:11:20.082Z,23.04
2022-08-14T06:13:31.562Z,23.08
2022-08-14T06:15:33.413Z,23.18
2022-08-14T06:17:46.436Z,23.25
2022-08-14T06:19:48.584Z,23.28
2022-08-14T06:21:58.091Z,23.36
2022-08-14T06:24:00.591Z,23.30
2022-08-14T06:26:02.885Z,23.24
2022-08-14T06:28:05.304Z,23.28
2022-08-14T06:30:30.343Z,23.33
2022-08-14T06:32:52.618Z,23.31
2022-08-14T06:35:02.636Z,23.41
2022-08-14T06:37:11.063Z,23.53
2022-08-14T06:39:12.971Z,23.55
2022-08-14T06:41:20.710Z,23.64
2022-08-14T06:43:32.833Z,23.73
2022-08-14T06:45:36.315Z,23.74
2022-08-14T06:47:43.847Z,23.74
2022-08-14T06:49:55.948Z,23.70
2022-08-14T06:52:00.709Z,23.61
2022-08-14T06:54:03.419Z,23.48
2022-08-14T06:56:04.984Z,23.54
2022-08-14T06:58:06.480Z,23.60
2022-08-14T07:00:30.506Z,23.69
2022-08-14T07:02:51.373Z,23.74
2022-08-14T07:05:13.145Z,23.82
2022-08-14T07:07:23.345Z,23.95
2022-08-14T07:09:27.759Z,23.98
2022-08-14T07:11:29.668Z,24.06
2022-08-14T07:13:31.551Z,24.23
2022-08-14T07:15:39.472Z,24.31
2022-08-14T07:17:52.207Z,24.34
2022-08-14T07:19:55.523Z,24.35
2022-08-14T07:21:58.924Z,24.35
2022-08-14T07:24:09.645Z,24.41
2022-08-14T07:26:23.715Z,24.55
2022-08-14T07:28:35.782Z,24.64
2022-08-14T07:30:37.806Z,24.63
2022-08-14T07:32:43.818Z,24.63
2022-08-14T07:34:45.708Z,24.69
2022-08-14T07:36:58.218Z,24.84
2022-08-14T07:39:03.541Z,24.91
2022-08-14T07:41:14.704Z,24.97
2022-08-14T07:43:18.452Z,25.05
2022-08-14T07:45:22.829Z,25.08
2022-08-14T07:47:25.011Z,25.07
2022-08-14T07:49:27.372Z,25.15
2022-08-14T07:51:34.048Z,25.06
2022-08-14T07:53:40.382Z,25.06
2022-08-14T07:55:43.670Z,25.11
2022-08-14T07:57:46.723Z,25.23
2022-08-14T07:59:49.528Z,25.32
2022-08-14T08:01:52.248Z,25.43
2022-08-14T08:03:59.565Z,25.59
2022-08-14T08:06:02.465Z,25.71
2022-08-14T08:08:26.956Z,25.78
2022-08-14T08:11:01.474Z,25.82
2022-08-14T08:12:56.906Z,25.89
2022-08-14T08:15:03.239Z,25.99
2022-08-14T08:17:10.673Z,26.07
2022-08-14T08:19:14.253Z,26.06
2022-08-14T08:21:16.311Z,26.09
2022-08-14T08:23:23.308Z,26.19
2022-08-14T08:25:39.645Z,26.22
2022-08-14T08:27:44.631Z,26.29
2022-08-14T08:29:50.765Z,26.15
2022-08-14T08:31:52.842Z,26.19
2022-08-14T08:33:54.396Z,26.27
2022-08-14T08:36:01.123Z,26.35
2022-08-14T08:39:14.247Z,26.31
2022-08-14T08:40:36.251Z,26.33
2022-08-14T08:42:44.801Z,26.49
2022-08-14T08:44:54.360Z,26.53
2022-08-14T08:47:01.257Z,26.56
2022-08-14T08:51:03.696Z,26.49
2022-08-14T08:53:10.657Z,26.34
2022-08-14T08:55:13.456Z,26.28
2022-08-14T08:57:15.632Z,26.34
2022-08-14T08:59:31.327Z,26.51
2022-08-14T09:01:35.672Z,26.63
2022-08-14T09:03:44.006Z,26.75
2022-08-14T09:06:02.730Z,26.88
2022-08-14T09:08:30.179Z,26.94
2022-08-14T09:10:34.122Z,27.04
2022-08-14T09:12:35.646Z,27.11
2022-08-14T09:14:37.350Z,27.17
2022-08-14T09:16:45.167Z,27.25
2022-08-14T09:18:50.259Z,27.32
2022-08-14T09:20:58.624Z,27.36
2022-08-14T09:23:00.643Z,27.38
2022-08-14T09:25:02.240Z,27.46
2022-08-14T09:27:04.099Z,27.49
2022-08-14T09:29:10.473Z,27.58
2022-08-14T09:31:17.732Z,27.63
2022-08-14T09:33:35.637Z,27.65
2022-08-14T09:36:15.399Z,27.63
2022-08-14T09:38:28.969Z,27.68
2022-08-14T09:40:48.018Z,27.72
2022-08-14T09:43:03.308Z,27.77
2022-08-14T09:45:30.340Z,27.82
2022-08-14T09:47:48.953Z,27.86
2022-08-14T09:49:53.339Z,27.91
2022-08-14T09:52:03.772Z,27.94
2022-08-14T09:54:43.460Z,27.95
2022-08-14T09:56:51.684Z,27.99
2022-08-14T09:59:15.076Z,28.05
2022-08-14T10:01:19.626Z,28.09
2022-08-14T10:03:34.391Z,28.15
2022-08-14T10:05:39.056Z,28.20
2022-08-14T10:07:53.513Z,28.27
2022-08-14T10:10:02.204Z,28.31
2022-08-14T10:12:05.414Z,28.27
2022-08-14T10:14:35.470Z,28.32
2022-08-14T10:16:43.068Z,28.42
2022-08-14T10:18:51.941Z,28.51
2022-08-14T10:21:00.754Z,28.56
2022-08-14T10:23:23.139Z,28.62
2022-08-14T10:25:26.843Z,28.71
2022-08-14T10:27:29.076Z,28.78
2022-08-14T10:29:37.458Z,28.82
2022-08-14T10:31:44.730Z,28.82
2022-08-14T10:33:59.174Z,28.92
2022-08-14T10:36:02.815Z,29.08
2022-08-14T10:38:07.355Z,29.28
2022-08-14T10:40:32.468Z,29.48
2022-08-14T10:42:40.206Z,29.70
2022-08-14T10:44:47.382Z,29.91
2022-08-14T10:47:41.686Z,30.10
2022-08-14T10:49:20.357Z,30.26
2022-08-14T10:51:29.979Z,30.40
2022-08-14T10:53:39.817Z,30.45
2022-08-14T10:55:45.480Z,30.53
2022-08-14T10:57:52.514Z,30.68
2022-08-14T10:59:59.731Z,31.04
2022-08-14T11:02:01.322Z,31.20
2022-08-14T11:04:03.271Z,31.37
2022-08-14T11:06:17.262Z,31.62
2022-08-14T11:08:31.252Z,31.99
2022-08-14T11:10:56.699Z,32.28
2022-08-14T11:12:58.712Z,32.48
2022-08-14T11:15:02.598Z,32.65
2022-08-14T11:17:05.721Z,32.84
2022-08-14T11:19:13.514Z,33.03
2022-08-14T11:21:18.666Z,32.60
2022-08-14T11:23:38.464Z,32.45
2022-08-14T11:25:53.269Z,32.61
2022-08-14T11:27:57.215Z,32.65
2022-08-14T11:30:51.264Z,32.63
2022-08-14T11:32:25.274Z,32.76
2022-08-14T11:34:29.901Z,32.88
2022-08-14T11:37:02.209Z,32.96
2022-08-14T11:38:58.011Z,32.97
2022-08-14T11:41:00.378Z,33.09
2022-08-14T11:43:09.209Z,33.17
2022-08-14T11:45:17.141Z,33.28
2022-08-14T11:47:20.592Z,33.40
2022-08-14T11:49:34.899Z,33.49
2022-08-14T11:51:53.787Z,33.60
2022-08-14T11:54:04.189Z,33.64
2022-08-14T11:56:07.040Z,33.58
2022-08-14T11:58:24.423Z,33.13
2022-08-14T12:00:31.872Z,32.38
2022-08-14T12:03:03.348Z,32.23
2022-08-14T12:04:55.808Z,32.39
2022-08-14T12:06:57.451Z,31.98
2022-08-14T12:09:00.808Z,31.86
2022-08-14T12:11:04.096Z,31.59
2022-08-14T12:13:14.230Z,31.47
2022-08-14T12:15:29.664Z,31.66
2022-08-14T12:17:49.269Z,31.71
2022-08-14T12:19:58.827Z,31.54
2022-08-14T12:22:00.493Z,31.64
2022-08-14T12:24:08.579Z,31.78
2022-08-14T12:26:40.015Z,31.94
2022-08-14T12:29:00.160Z,31.96
2022-08-14T12:31:13.403Z,31.76
2022-08-14T12:33:33.237Z,31.78
2022-08-14T12:35:42.851Z,31.81
2022-08-14T12:37:49.660Z,31.69
2022-08-14T12:39:52.228Z,31.67
2022-08-14T12:42:06.631Z,31.77
2022-08-14T12:44:08.511Z,31.87
2022-08-14T12:46:11.619Z,31.95
2022-08-14T12:48:31.353Z,31.68
2022-08-14T12:50:39.838Z,31.36
2022-08-14T12:53:02.220Z,31.43
2022-08-14T12:55:10.588Z,31.53
2022-08-14T12:57:20.155Z,31.31
2022-08-14T12:59:33.183Z,31.38
2022-08-14T13:01:59.820Z,31.47
2022-08-14T13:04:17.573Z,31.47
2022-08-14T13:06:23.155Z,31.44
2022-08-14T13:08:33.630Z,31.34
2022-08-14T13:10:51.150Z,31.32
2022-08-14T13:13:15.094Z,31.26
2022-08-14T13:15:19.484Z,31.16
2022-08-14T13:17:22.545Z,31.18
2022-08-14T13:19:26.821Z,31.16
2022-08-14T13:21:58.861Z,30.90
2022-08-14T13:23:55.604Z,30.85
2022-08-14T13:26:00.493Z,30.90
2022-08-14T13:28:03.016Z,30.84
2022-08-14T13:30:10.827Z,30.89
2022-08-14T13:32:26.124Z,31.01
2022-08-14T13:34:29.467Z,31.05
2022-08-14T13:36:54.423Z,31.09
2022-08-14T13:38:57.356Z,30.97
2022-08-14T13:40:58.890Z,31.00
2022-08-14T13:43:00.420Z,31.11
2022-08-14T13:45:04.766Z,31.12
2022-08-14T13:47:06.899Z,31.11
2022-08-14T13:49:12.126Z,30.99
2022-08-14T13:51:17.718Z,31.03
2022-08-14T13:53:22.906Z,31.08
2022-08-14T13:55:29.917Z,31.07
2022-08-14T13:57:36.088Z,30.99
2022-08-14T13:59:45.492Z,31.04
2022-08-14T14:01:51.595Z,31.03
2022-08-14T14:03:56.425Z,31.11
2022-08-14T14:05:58.765Z,31.15
2022-08-14T14:08:00.833Z,31.16
2022-08-14T14:10:07.433Z,31.06
2022-08-14T14:12:38.220Z,31.07
2022-08-14T14:14:51.444Z,30.97
2022-08-14T14:16:53.411Z,30.93
2022-08-14T14:19:06.850Z,30.77
2022-08-14T14:21:11.439Z,30.70
2022-08-14T14:23:17.616Z,30.84
2022-08-14T14:25:22.012Z,30.97
2022-08-14T14:27:42.686Z,30.97
2022-08-14T14:29:50.491Z,31.05
2022-08-14T14:32:01.803Z,31.01
2022-08-14T14:34:07.289Z,31.13
2022-08-14T14:36:20.996Z,31.19
2022-08-14T14:38:30.785Z,31.21
2022-08-14T14:40:52.261Z,31.10
2022-08-14T14:42:57.600Z,31.15
2022-08-14T14:45:18.022Z,31.22
2022-08-14T14:47:22.761Z,31.17
2022-08-14T14:49:41.803Z,31.00
2022-08-14T14:51:51.375Z,30.86
2022-08-14T14:53:54.510Z,30.75
2022-08-14T14:56:51.210Z,30.61
2022-08-14T14:58:20.546Z,30.60
2022-08-14T15:00:22.288Z,30.52
2022-08-14T15:02:36.548Z,30.46
2022-08-14T15:04:43.633Z,30.48
2022-08-14T15:06:47.897Z,30.47
2022-08-14T15:08:56.473Z,30.62
2022-08-14T15:11:00.544Z,30.59
2022-08-14T15:13:04.006Z,30.54
2022-08-14T15:15:08.388Z,30.58
2022-08-14T15:17:11.028Z,30.59
2022-08-14T15:19:12.693Z,30.74
2022-08-14T15:21:15.607Z,30.83
2022-08-14T15:23:17.492Z,30.94
2022-08-14T15:25:24.428Z,31.02
2022-08-14T15:27:26.951Z,31.12
2022-08-14T15:29:29.180Z,31.10
2022-08-14T15:31:37.045Z,31.21
2022-08-14T15:34:33.486Z,31.25
2022-08-14T15:36:25.618Z,31.31
2022-08-14T15:38:33.060Z,31.38
2022-08-14T15:40:41.670Z,31.40
2022-08-14T15:42:43.264Z,31.45
2022-08-14T15:44:57.955Z,31.51
2022-08-14T15:47:06.962Z,31.52
2022-08-14T15:49:08.887Z,31.51
2022-08-14T15:51:11.512Z,31.47
2022-08-14T15:53:14.681Z,31.47
2022-08-14T15:55:16.416Z,31.44
2022-08-14T15:57:19.866Z,31.31
2022-08-14T15:59:22.218Z,31.26
2022-08-14T16:01:50.600Z,31.18
2022-08-14T16:03:48.993Z,31.10
2022-08-14T16:05:50.812Z,31.08
2022-08-14T16:07:53.676Z,31.07
2022-08-14T16:10:27.611Z,31.07
2022-08-14T16:12:19.251Z,30.99
2022-08-14T16:14:41.500Z,30.89
2022-08-14T16:16:50.122Z,30.87
2022-08-14T16:18:58.145Z,30.80
2022-08-14T16:21:05.386Z,30.85
2022-08-14T16:23:11.772Z,30.84
2022-08-14T16:25:15.622Z,30.76
2022-08-14T16:27:33.498Z,30.77
2022-08-14T16:29:40.164Z,30.65
2022-08-14T16:31:44.851Z,30.68
2022-08-14T16:33:59.031Z,30.72
2022-08-14T16:36:04.265Z,30.71
2022-08-14T16:38:46.083Z,30.70
2022-08-14T16:41:15.569Z,30.72
2022-08-14T16:43:25.811Z,30.64
2022-08-14T16:45:29.160Z,30.65
2022-08-14T16:47:34.777Z,30.59
2022-08-14T16:50:04.625Z,30.65
2022-08-14T16:51:58.368Z,30.65
2022-08-14T16:54:02.381Z,30.67
2022-08-14T16:56:17.057Z,30.61
2022-08-14T16:58:29.905Z,30.63
2022-08-14T17:00:47.900Z,30.67
2022-08-14T17:03:04.645Z,30.61
2022-08-14T17:05:24.774Z,30.59
2022-08-14T17:07:26.447Z,30.58
2022-08-14T17:09:43.305Z,30.56
2022-08-14T17:12:00.604Z,30.50
2022-08-14T17:14:10.556Z,30.48
2022-08-14T17:16:24.617Z,30.52
2022-08-14T17:18:48.861Z,30.41
2022-08-14T17:21:26.759Z,30.42
2022-08-14T17:23:33.514Z,30.43
2022-08-14T17:25:37.068Z,30.37
2022-08-14T17:27:38.896Z,30.31
2022-08-14T17:29:56.760Z,30.22
2022-08-14T17:32:28.443Z,30.15
2022-08-14T17:34:52.179Z,30.12
2022-08-14T17:36:54.489Z,30.07
2022-08-14T17:39:08.560Z,29.99
2022-08-14T17:41:27.104Z,29.92
2022-08-14T17:43:41.934Z,29.92
2022-08-14T17:45:46.886Z,29.79
2022-08-14T17:47:49.388Z,29.84
2022-08-14T17:49:53.574Z,29.76
2022-08-14T17:52:16.818Z,29.77
2022-08-14T17:54:22.778Z,29.71
2022-08-14T17:56:38.652Z,29.64
2022-08-14T17:58:42.153Z,29.60
2022-08-14T18:00:43.870Z,29.56
2022-08-14T18:02:50.667Z,29.57
2022-08-14T18:04:55.120Z,29.51
2022-08-14T18:07:16.322Z,29.48
2022-08-14T18:09:24.925Z,29.45
2022-08-14T18:11:45.953Z,29.40
2022-08-14T18:13:52.654Z,29.37
2022-08-14T18:15:57.857Z,29.30
2022-08-14T18:18:01.556Z,29.19
2022-08-14T18:21:24.177Z,29.14
2022-08-14T18:22:32.184Z,29.13
2022-08-14T18:24:40.845Z,29.13
2022-08-14T18:26:45.098Z,29.10
2022-08-14T18:28:51.871Z,29.04
2022-08-14T18:31:43.820Z,29.04
2022-08-14T18:33:53.979Z,28.96
2022-08-14T18:35:58.126Z,28.91
2022-08-14T18:38:25.427Z,28.88
2022-08-14T18:40:34.911Z,28.84
2022-08-14T18:42:43.963Z,28.78
2022-08-14T18:44:54.833Z,28.70
2022-08-14T18:47:14.796Z,28.64
2022-08-14T18:49:17.105Z,28.59
2022-08-14T18:51:44.868Z,28.56
2022-08-14T18:53:59.268Z,28.47
2022-08-14T18:56:09.861Z,28.45
2022-08-14T18:58:27.448Z,28.33
2022-08-14T19:00:40.384Z,28.31
2022-08-14T19:02:43.561Z,28.31
2022-08-14T19:04:45.100Z,28.26
2022-08-14T19:06:56.418Z,28.23
2022-08-14T19:08:58.356Z,28.16
2022-08-14T19:11:04.007Z,28.10
2022-08-14T19:13:12.085Z,28.07
2022-08-14T19:15:25.743Z,28.01
2022-08-14T19:18:14.475Z,27.96
2022-08-14T19:20:08.130Z,27.92
2022-08-14T19:22:29.933Z,27.88
2022-08-14T19:24:34.595Z,27.82
2022-08-14T19:26:54.302Z,27.79
2022-08-14T19:28:57.493Z,27.74
2022-08-14T19:31:37.001Z,27.72
2022-08-14T19:33:47.540Z,27.65
2022-08-14T19:36:00.319Z,27.64
2022-08-14T19:38:02.016Z,27.63
2022-08-14T19:40:15.383Z,27.58
2022-08-14T19:42:36.402Z,27.52
2022-08-14T19:44:48.608Z,27.47
2022-08-14T19:47:01.226Z,27.45
2022-08-14T19:49:06.035Z,27.42
2022-08-14T19:51:08.073Z,27.40
2022-08-14T19:53:17.521Z,27.35
2022-08-14T19:55:20.673Z,27.31
2022-08-14T19:57:36.047Z,27.27
2022-08-14T19:59:57.734Z,27.26
2022-08-14T20:01:59.421Z,27.20
2022-08-14T20:04:03.529Z,27.19
2022-08-14T20:06:05.666Z,27.16
2022-08-14T20:09:05.072Z,27.14
2022-08-14T20:11:06.879Z,27.11
2022-08-14T20:12:59.919Z,27.08
2022-08-14T20:15:17.789Z,27.04
2022-08-14T20:17:21.932Z,27.01
2022-08-14T20:19:28.687Z,27.00
2022-08-14T20:21:34.618Z,26.99
2022-08-14T20:23:37.990Z,26.97
2022-08-14T20:25:57.174Z,26.94
2022-08-14T20:28:30.230Z,26.90
2022-08-14T20:30:34.124Z,26.86
2022-08-14T20:32:44.319Z,26.84
2022-08-14T20:34:51.393Z,26.83
2022-08-14T20:37:26.225Z,26.84
2022-08-14T20:39:34.375Z,26.82
2022-08-14T20:41:36.447Z,26.80
2022-08-14T20:43:59.598Z,26.79
2022-08-14T20:46:11.475Z,26.78
2022-08-14T20:48:52.803Z,26.76
2022-08-14T20:50:45.131Z,26.72
2022-08-14T20:52:48.667Z,26.71
2022-08-14T20:54:51.555Z,26.70
2022-08-14T20:56:53.393Z,26.70
2022-08-14T20:58:54.911Z,26.69
2022-08-14T21:01:05.949Z,26.67
2022-08-14T21:03:57.008Z,26.67
2022-08-14T21:06:17.073Z,26.66
2022-08-14T21:08:25.680Z,26.66
2022-08-14T21:10:35.604Z,26.67
2022-08-14T21:12:39.178Z,26.67
2022-08-14T21:15:01.263Z,26.67
2022-08-14T21:17:02.855Z,26.71
2022-08-14T21:19:04.352Z,26.70
2022-08-14T21:21:08.649Z,26.62
2022-08-14T21:23:12.256Z,26.58
2022-08-14T21:25:13.914Z,26.60
2022-08-14T21:27:20.011Z,26.62
2022-08-14T21:29:24.034Z,26.63
2022-08-14T21:31:29.904Z,26.59
2022-08-14T21:33:34.271Z,26.56
2022-08-14T21:35:42.146Z,26.52
2022-08-14T21:37:45.011Z,26.47
2022-08-14T21:39:48.074Z,26.41
2022-08-14T21:42:00.073Z,26.36
2022-08-14T21:44:17.173Z,26.33
2022-08-14T21:46:20.010Z,26.32
2022-08-14T21:48:25.341Z,26.31
2022-08-14T21:50:38.750Z,26.30
2022-08-14T21:53:00.838Z,26.26
2022-08-14T21:55:09.543Z,26.20
2022-08-14T21:57:15.367Z,26.14
2022-08-14T21:59:22.584Z,26.12
2022-08-14T22:01:26.494Z,26.11
2022-08-14T22:03:54.375Z,26.13
2022-08-14T22:05:56.869Z,26.12
2022-08-14T22:07:58.755Z,26.12
2022-08-14T22:10:00.315Z,26.12
2022-08-14T22:12:09.483Z,26.11
2022-08-14T22:14:25.513Z,26.09
2022-08-14T22:16:40.298Z,26.07
2022-08-14T22:18:51.292Z,26.06
2022-08-14T22:20:56.567Z,26.05
2022-08-14T22:23:04.363Z,26.01
2022-08-14T22:25:08.565Z,26.01
2022-08-14T22:27:17.962Z,26.00
2022-08-14T22:29:23.194Z,25.99
2022-08-14T22:31:25.156Z,25.99
2022-08-14T22:33:36.930Z,25.96
2022-08-14T22:35:39.870Z,25.92
2022-08-14T22:37:44.649Z,25.89
2022-08-14T22:40:46.146Z,25.89
2022-08-14T22:42:19.271Z,25.88
2022-08-14T22:44:25.936Z,25.88
2022-08-14T22:46:30.943Z,25.87
2022-08-14T22:48:32.462Z,25.84
2022-08-14T22:50:34.017Z,25.83
2022-08-14T22:52:38.467Z,25.83
2022-08-14T22:54:53.041Z,25.78
2022-08-14T22:56:56.559Z,25.72
2022-08-14T22:59:00.929Z,25.67
2022-08-14T23:01:10.148Z,25.68
2022-08-14T23:03:16.973Z,25.67
2022-08-14T23:05:19.317Z,25.65
2022-08-14T23:08:59.555Z,25.64
2022-08-14T23:10:31.881Z,25.59
2022-08-14T23:12:29.691Z,25.58
2022-08-14T23:14:31.992Z,25.56
2022-08-14T23:16:35.660Z,25.55
2022-08-14T23:18:38.864Z,25.53
2022-08-14T23:20:42.360Z,25.45
2022-08-14T23:22:48.352Z,25.41
2022-08-14T23:24:52.895Z,25.40
2022-08-14T23:26:58.370Z,25.39
2022-08-14T23:29:00.074Z,25.37
2022-08-14T23:31:01.963Z,25.38
2022-08-14T23:33:03.900Z,25.38
2022-08-14T23:35:07.225Z,25.38
2022-08-14T23:37:08.891Z,25.39
2022-08-14T23:39:18.999Z,25.39
2022-08-14T23:41:21.455Z,25.41
2022-08-14T23:43:23.320Z,25.35
2022-08-14T23:45:27.347Z,25.37
2022-08-14T23:47:51.854Z,25.38
2022-08-14T23:50:03.476Z,25.37
2022-08-14T23:52:55.440Z,25.33
2022-08-14T23:54:48.995Z,25.26
2022-08-14T23:57:02.699Z,25.28
2022-08-14T23:59:04.741Z,25.28
